sensor_id;sensor_type;location;lat;lon;timestamp;pressure;altitude;pressure_sealevel;temperature;humidity
53758;BME280;39674;59.860;30.672;2023-02-24T00:02:07;99958.53;;;-7.44;100.00
53758;BME280;39674;59.860;30.672;2023-02-24T00:04:53;99954.31;;;-7.37;100.00
53758;BME280;39674;59.860;30.672;2023-02-24T00:07:23;99946.66;;;-7.35;100.00
53758;BME280;39674;59.860;30.672;2023-02-24T00:10:02;99945.75;;;-7.37;100.00
53758;BME280;39674;59.860;30.672;2023-02-24T00:12:35;99947.50;;;-7.36;100.00
53758;BME280;39674;59.860;30.672;2023-02-24T00:15:04;99936.44;;;-7.31;100.00
53758;BME280;39674;59.860;30.672;2023-02-24T00:17:32;99934.75;;;-7.26;100.00
53758;BME280;39674;59.860;30.672;2023-02-24T00:20:30;99927.03;;;-7.29;100.00
53758;BME280;39674;59.860;30.672;2023-02-24T00:23:01;99919.38;;;-7.26;100.00
53758;BME280;39674;59.860;30.672;2023-02-24T00:25:33;99918.53;;;-7.23;100.00
53758;BME280;39674;59.860;30.672;2023-02-24T00:28:07;99914.22;;;-7.26;100.00
53758;BME280;39674;59.860;30.672;2023-02-24T00:30:35;99904.00;;;-7.19;100.00
53758;BME280;39674;59.860;30.672;2023-02-24T00:33:11;99900.59;;;-7.15;100.00
53758;BME280;39674;59.860;30.672;2023-02-24T00:35:52;99890.31;;;-7.21;100.00
53758;BME280;39674;59.860;30.672;2023-02-24T00:38:25;99891.13;;;-7.24;100.00
53758;BME280;39674;59.860;30.672;2023-02-24T00:43:49;99876.59;;;-7.23;100.00
53758;BME280;39674;59.860;30.672;2023-02-24T00:46:23;99871.50;;;-7.20;100.00
53758;BME280;39674;59.860;30.672;2023-02-24T00:49:01;99872.34;;;-7.20;100.00
53758;BME280;39674;59.860;30.672;2023-02-24T00:51:35;99869.81;;;-7.18;100.00
53758;BME280;39674;59.860;30.672;2023-02-24T00:54:04;99866.38;;;-7.17;100.00
53758;BME280;39674;59.860;30.672;2023-02-24T00:56:33;99860.38;;;-7.16;100.00
53758;BME280;39674;59.860;30.672;2023-02-24T00:59:06;99852.66;;;-7.22;100.00
53758;BME280;39674;59.860;30.672;2023-02-24T01:01:43;99849.25;;;-7.21;100.00
53758;BME280;39674;59.860;30.672;2023-02-24T01:04:13;99850.16;;;-7.13;100.00
53758;BME280;39674;59.860;30.672;2023-02-24T01:06:48;99847.59;;;-7.15;100.00
53758;BME280;39674;59.860;30.672;2023-02-24T01:09:17;99832.19;;;-7.13;100.00
53758;BME280;39674;59.860;30.672;2023-02-24T01:12:00;99837.34;;;-7.10;100.00
53758;BME280;39674;59.860;30.672;2023-02-24T01:14:49;99838.13;;;-7.17;100.00
53758;BME280;39674;59.860;30.672;2023-02-24T01:17:22;99832.19;;;-7.13;100.00
53758;BME280;39674;59.860;30.672;2023-02-24T01:19:50;99827.06;;;-7.13;100.00
53758;BME280;39674;59.860;30.672;2023-02-24T01:22:24;99818.47;;;-7.15;100.00
53758;BME280;39674;59.860;30.672;2023-02-24T01:25:06;99815.06;;;-7.14;100.00
53758;BME280;39674;59.860;30.672;2023-02-24T01:27:36;99816.81;;;-7.07;100.00
53758;BME280;39674;59.860;30.672;2023-02-24T01:30:09;99803.09;;;-7.15;100.00
53758;BME280;39674;59.860;30.672;2023-02-24T01:32:42;99803.13;;;-7.09;100.00
53758;BME280;39674;59.860;30.672;2023-02-24T01:35:17;99801.41;;;-7.10;100.00
53758;BME280;39674;59.860;30.672;2023-02-24T01:37:49;99797.97;;;-7.09;100.00
53758;BME280;39674;59.860;30.672;2023-02-24T01:40:21;99792.84;;;-7.09;100.00
53758;BME280;39674;59.860;30.672;2023-02-24T01:42:55;99789.44;;;-7.08;100.00
53758;BME280;39674;59.860;30.672;2023-02-24T01:45:28;99796.31;;;-7.01;100.00
53758;BME280;39674;59.860;30.672;2023-02-24T01:48:07;99786.06;;;-7.02;100.00
53758;BME280;39674;59.860;30.672;2023-02-24T01:50:41;99794.63;;;-6.99;100.00
53758;BME280;39674;59.860;30.672;2023-02-24T01:53:13;99782.63;;;-7.03;100.00
53758;BME280;39674;59.860;30.672;2023-02-24T01:55:44;99779.22;;;-6.97;100.00
53758;BME280;39674;59.860;30.672;2023-02-24T01:58:19;99770.66;;;-7.01;100.00
53758;BME280;39674;59.860;30.672;2023-02-24T02:00:53;99771.53;;;-6.96;100.00
53758;BME280;39674;59.860;30.672;2023-02-24T02:03:24;99772.41;;;-6.94;100.00
53758;BME280;39674;59.860;30.672;2023-02-24T02:06:01;99758.69;;;-6.96;100.00
53758;BME280;39674;59.860;30.672;2023-02-24T02:08:38;99758.69;;;-6.99;100.00
53758;BME280;39674;59.860;30.672;2023-02-24T02:11:09;99726.09;;;-7.15;100.00
53758;BME280;39674;59.860;30.672;2023-02-24T02:13:41;99757.00;;;-6.94;100.00
53758;BME280;39674;59.860;30.672;2023-02-24T02:19:08;99749.28;;;-6.90;100.00
53758;BME280;39674;59.860;30.672;2023-02-24T02:21:51;99743.31;;;-6.93;100.00
53758;BME280;39674;59.860;30.672;2023-02-24T02:24:34;99743.31;;;-6.89;100.00
53758;BME280;39674;59.860;30.672;2023-02-24T02:33:00;99736.47;;;-6.90;100.00
53758;BME280;39674;59.860;30.672;2023-02-24T02:35:45;99734.75;;;-6.91;100.00
53758;BME280;39674;59.860;30.672;2023-02-24T02:38:24;99729.63;;;-6.88;100.00
53758;BME280;39674;59.860;30.672;2023-02-24T02:40:58;99726.22;;;-6.84;100.00
53758;BME280;39674;59.860;30.672;2023-02-24T02:43:29;99724.53;;;-6.85;100.00
53758;BME280;39674;59.860;30.672;2023-02-24T02:46:00;99718.50;;;-6.84;100.00
53758;BME280;39674;59.860;30.672;2023-02-24T02:48:35;99720.22;;;-6.82;100.00
53758;BME280;39674;59.860;30.672;2023-02-24T02:51:09;99709.97;;;-6.86;100.00
53758;BME280;39674;59.860;30.672;2023-02-24T02:53:44;99705.69;;;-6.81;100.00
53758;BME280;39674;59.860;30.672;2023-02-24T02:56:17;99707.41;;;-6.80;100.00
53758;BME280;39674;59.860;30.672;2023-02-24T02:58:58;99713.41;;;-6.83;100.00
53758;BME280;39674;59.860;30.672;2023-02-24T03:01:28;99700.56;;;-6.81;100.00
53758;BME280;39674;59.860;30.672;2023-02-24T03:03:58;99695.41;;;-6.78;100.00
53758;BME280;39674;59.860;30.672;2023-02-24T03:06:35;99690.28;;;-6.78;100.00
53758;BME280;39674;59.860;30.672;2023-02-24T03:09:10;99686.00;;;-6.74;100.00
53758;BME280;39674;59.860;30.672;2023-02-24T03:11:44;99688.59;;;-6.79;100.00
53758;BME280;39674;59.860;30.672;2023-02-24T03:14:24;99689.44;;;-6.79;100.00
53758;BME280;39674;59.860;30.672;2023-02-24T03:16:54;99688.59;;;-6.76;100.00
53758;BME280;39674;59.860;30.672;2023-02-24T03:19:27;99678.34;;;-6.73;100.00
53758;BME280;39674;59.860;30.672;2023-02-24T03:22:00;99678.34;;;-6.73;100.00
53758;BME280;39674;59.860;30.672;2023-02-24T03:24:43;99661.19;;;-6.77;100.00
53758;BME280;39674;59.860;30.672;2023-02-24T03:27:22;99661.19;;;-6.77;100.00
53758;BME280;39674;59.860;30.672;2023-02-24T03:29:56;99662.91;;;-6.79;100.00
53758;BME280;39674;59.860;30.672;2023-02-24T03:32:40;99655.19;;;-6.74;100.00
53758;BME280;39674;59.860;30.672;2023-02-24T03:35:18;99656.91;;;-6.73;100.00
53758;BME280;39674;59.860;30.672;2023-02-24T03:37:52;99650.06;;;-6.70;100.00
53758;BME280;39674;59.860;30.672;2023-02-24T03:40:23;99645.78;;;-6.77;100.00
53758;BME280;39674;59.860;30.672;2023-02-24T03:43:04;99644.06;;;-6.72;100.00
53758;BME280;39674;59.860;30.672;2023-02-24T03:45:42;99630.38;;;-6.71;100.00
53758;BME280;39674;59.860;30.672;2023-02-24T03:48:19;99628.66;;;-6.75;100.00
53758;BME280;39674;59.860;30.672;2023-02-24T03:50:53;99624.38;;;-6.74;100.00
53758;BME280;39674;59.860;30.672;2023-02-24T03:53:54;99626.09;;;-6.73;100.00
53758;BME280;39674;59.860;30.672;2023-02-24T03:56:31;99630.38;;;-6.74;100.00
53758;BME280;39674;59.860;30.672;2023-02-24T03:59:11;99626.97;;;-6.73;100.00
53758;BME280;39674;59.860;30.672;2023-02-24T04:01:46;99626.09;;;-6.73;100.00
53758;BME280;39674;59.860;30.672;2023-02-24T04:04:24;99630.38;;;-6.74;100.00
53758;BME280;39674;59.860;30.672;2023-02-24T04:07:26;99626.09;;;-6.69;100.00
53758;BME280;39674;59.860;30.672;2023-02-24T04:10:11;99616.69;;;-6.73;100.00
53758;BME280;39674;59.860;30.672;2023-02-24T04:12:56;99616.69;;;-6.70;100.00
53758;BME280;39674;59.860;30.672;2023-02-24T04:15:32;99615.81;;;-6.67;100.00
53758;BME280;39674;59.860;30.672;2023-02-24T04:18:05;99611.56;;;-6.64;100.00
53758;BME280;39674;59.860;30.672;2023-02-24T04:20:38;99617.56;;;-6.63;100.00
53758;BME280;39674;59.860;30.672;2023-02-24T04:23:21;99614.97;;;-6.65;100.00
53758;BME280;39674;59.860;30.672;2023-02-24T04:25:58;99613.25;;;-6.69;100.00
53758;BME280;39674;59.860;30.672;2023-02-24T04:28:43;99611.56;;;-6.65;100.00
53758;BME280;39674;59.860;30.672;2023-02-24T04:31:17;99616.69;;;-6.64;100.00
53758;BME280;39674;59.860;30.672;2023-02-24T04:33:54;99618.41;;;-6.66;100.00
53758;BME280;39674;59.860;30.672;2023-02-24T04:36:39;99616.69;;;-6.67;100.00
53758;BME280;39674;59.860;30.672;2023-02-24T04:39:19;99614.97;;;-6.65;100.00
53758;BME280;39674;59.860;30.672;2023-02-24T04:41:58;99619.25;;;-6.65;100.00
53758;BME280;39674;59.860;30.672;2023-02-24T04:44:27;99626.97;;;-6.67;100.00
53758;BME280;39674;59.860;30.672;2023-02-24T04:47:00;99621.81;;;-6.64;100.00
53758;BME280;39674;59.860;30.672;2023-02-24T04:49:30;99615.84;;;-6.64;100.00
53758;BME280;39674;59.860;30.672;2023-02-24T04:52:02;99610.72;;;-6.64;100.00
53758;BME280;39674;59.860;30.672;2023-02-24T04:54:37;99614.13;;;-6.59;100.00
53758;BME280;39674;59.860;30.672;2023-02-24T04:57:09;99611.56;;;-6.57;100.00
53758;BME280;39674;59.860;30.672;2023-02-24T04:59:58;99612.44;;;-6.63;100.00
53758;BME280;39674;59.860;30.672;2023-02-24T05:02:32;99605.56;;;-6.63;100.00
53758;BME280;39674;59.860;30.672;2023-02-24T05:05:05;99599.56;;;-6.58;100.00
53758;BME280;39674;59.860;30.672;2023-02-24T05:07:38;99602.13;;;-6.60;100.00
53758;BME280;39674;59.860;30.672;2023-02-24T05:10:12;99592.72;;;-6.63;100.00
53758;BME280;39674;59.860;30.672;2023-02-24T05:12:42;99602.13;;;-6.65;100.00
53758;BME280;39674;59.860;30.672;2023-02-24T05:15:11;99597.88;;;-6.59;100.00
53758;BME280;39674;59.860;30.672;2023-02-24T05:17:40;99592.75;;;-6.59;100.00
53758;BME280;39674;59.860;30.672;2023-02-24T05:20:12;99592.72;;;-6.63;100.00
53758;BME280;39674;59.860;30.672;2023-02-24T05:23:01;99578.16;;;-6.62;100.00
53758;BME280;39674;59.860;30.672;2023-02-24T05:25:32;99588.44;;;-6.62;100.00
53758;BME280;39674;59.860;30.672;2023-02-24T05:28:09;99575.59;;;-6.64;100.00
53758;BME280;39674;59.860;30.672;2023-02-24T05:30:51;99577.31;;;-6.63;100.00
53758;BME280;39674;59.860;30.672;2023-02-24T05:33:37;99571.31;;;-6.60;100.00
53758;BME280;39674;59.860;30.672;2023-02-24T05:36:10;99575.59;;;-6.54;100.00
53758;BME280;39674;59.860;30.672;2023-02-24T05:38:48;99567.91;;;-6.54;100.00
53758;BME280;39674;59.860;30.672;2023-02-24T05:41:21;99568.75;;;-6.55;100.00
53758;BME280;39674;59.860;30.672;2023-02-24T05:43:53;99567.91;;;-6.53;100.00
53758;BME280;39674;59.860;30.672;2023-02-24T05:46:29;99570.44;;;-6.51;100.00
53758;BME280;39674;59.860;30.672;2023-02-24T05:48:59;99568.72;;;-6.52;100.00
53758;BME280;39674;59.860;30.672;2023-02-24T05:51:37;99568.75;;;-6.55;100.00
53758;BME280;39674;59.860;30.672;2023-02-24T05:54:09;99570.44;;;-6.51;100.00
53758;BME280;39674;59.860;30.672;2023-02-24T05:56:46;99573.88;;;-6.43;100.00
53758;BME280;39674;59.860;30.672;2023-02-24T05:59:41;99568.75;;;-6.43;100.00
53758;BME280;39674;59.860;30.672;2023-02-24T06:02:25;99558.47;;;-6.41;100.00
53758;BME280;39674;59.860;30.672;2023-02-24T06:05:03;99563.63;;;-6.40;100.00
53758;BME280;39674;59.860;30.672;2023-02-24T06:07:50;99560.19;;;-6.42;100.00
53758;BME280;39674;59.860;30.672;2023-02-24T06:10:32;99557.59;;;-6.33;100.00
53758;BME280;39674;59.860;30.672;2023-02-24T06:13:01;99549.03;;;-6.35;100.00
53758;BME280;39674;59.860;30.672;2023-02-24T06:15:41;99555.03;;;-6.36;100.00
53758;BME280;39674;59.860;30.672;2023-02-24T06:18:24;99550.75;;;-6.31;100.00
53758;BME280;39674;59.860;30.672;2023-02-24T06:20:55;99553.31;;;-6.31;100.00
53758;BME280;39674;59.860;30.672;2023-02-24T06:23:28;99551.59;;;-6.24;100.00
53758;BME280;39674;59.860;30.672;2023-02-24T06:26:08;99552.44;;;-6.23;100.00
53758;BME280;39674;59.860;30.672;2023-02-24T06:28:47;99549.00;;;-6.19;100.00
53758;BME280;39674;59.860;30.672;2023-02-24T06:31:33;99543.88;;;-6.16;100.00
53758;BME280;39674;59.860;30.672;2023-02-24T06:34:08;99549.88;;;-6.14;100.00
53758;BME280;39674;59.860;30.672;2023-02-24T06:36:37;99541.28;;;-6.16;100.00
53758;BME280;39674;59.860;30.672;2023-02-24T06:39:09;99537.88;;;-6.14;100.00
53758;BME280;39674;59.860;30.672;2023-02-24T06:41:40;99546.44;;;-6.07;100.00
53758;BME280;39674;59.860;30.672;2023-02-24T06:44:12;99552.38;;;-6.03;100.00
53758;BME280;39674;59.860;30.672;2023-02-24T06:46:45;99541.28;;;-6.07;100.00
53758;BME280;39674;59.860;30.672;2023-02-24T06:49:25;99533.56;;;-6.01;100.00
53758;BME280;39674;59.860;30.672;2023-02-24T06:51:56;99537.81;;;-6.00;100.00
53758;BME280;39674;59.860;30.672;2023-02-24T06:54:29;99543.78;;;-5.93;100.00
53758;BME280;39674;59.860;30.672;2023-02-24T06:57:13;99538.59;;;-5.90;100.00
53758;BME280;39674;59.860;30.672;2023-02-24T06:59:50;99537.78;;;-5.87;100.00
53758;BME280;39674;59.860;30.672;2023-02-24T07:02:35;99529.19;;;-5.88;100.00
53758;BME280;39674;59.860;30.672;2023-02-24T07:05:06;99529.19;;;-5.88;100.00
53758;BME280;39674;59.860;30.672;2023-02-24T07:07:44;99532.63;;;-5.87;100.00
53758;BME280;39674;59.860;30.672;2023-02-24T07:10:20;99528.31;;;-5.87;100.00
53758;BME280;39674;59.860;30.672;2023-02-24T07:13:01;99527.47;;;-5.84;100.00
53758;BME280;39674;59.860;30.672;2023-02-24T07:15:29;99527.47;;;-5.84;100.00
53758;BME280;39674;59.860;30.672;2023-02-24T07:18:04;99534.31;;;-5.83;100.00
53758;BME280;39674;59.860;30.672;2023-02-24T07:20:41;99530.03;;;-5.80;100.00
53758;BME280;39674;59.860;30.672;2023-02-24T07:23:13;99527.44;;;-5.78;100.00
53758;BME280;39674;59.860;30.672;2023-02-24T07:25:46;99526.53;;;-5.69;100.00
53758;BME280;39674;59.860;30.672;2023-02-24T07:28:17;99523.09;;;-5.67;100.00
53758;BME280;39674;59.860;30.672;2023-02-24T07:30:47;99506.00;;;-5.82;100.00
53758;BME280;39674;59.860;30.672;2023-02-24T07:33:20;99536.78;;;-5.60;100.00
53758;BME280;39674;59.860;30.672;2023-02-24T07:35:51;99535.06;;;-5.55;100.00
53758;BME280;39674;59.860;30.672;2023-02-24T07:38:21;99535.91;;;-5.53;100.00
53758;BME280;39674;59.860;30.672;2023-02-24T07:40:56;99540.19;;;-5.50;100.00
53758;BME280;39674;59.860;30.672;2023-02-24T07:43:31;99545.31;;;-5.50;100.00
53758;BME280;39674;59.860;30.672;2023-02-24T07:46:04;99546.19;;;-5.48;100.00
53758;BME280;39674;59.860;30.672;2023-02-24T07:48:37;99538.47;;;-5.54;100.00
53758;BME280;39674;59.860;30.672;2023-02-24T07:51:07;99531.59;;;-5.48;100.00
53758;BME280;39674;59.860;30.672;2023-02-24T07:53:38;99533.28;;;-5.43;100.00
53758;BME280;39674;59.860;30.672;2023-02-24T07:56:16;99534.97;;;-5.41;100.00
53758;BME280;39674;59.860;30.672;2023-02-24T07:58:52;99529.81;;;-5.38;100.00
53758;BME280;39674;59.860;30.672;2023-02-24T08:01:29;99529.78;;;-5.30;100.00
53758;BME280;39674;59.860;30.672;2023-02-24T08:04:10;99530.66;;;-5.29;100.00
53758;BME280;39674;59.860;30.672;2023-02-24T08:06:45;99526.28;;;-5.20;100.00
53758;BME280;39674;59.860;30.672;2023-02-24T08:09:23;99529.69;;;-5.14;100.00
53758;BME280;39674;59.860;30.672;2023-02-24T08:12:11;99527.94;;;-5.06;100.00
53758;BME280;39674;59.860;30.672;2023-02-24T08:14:43;99521.91;;;-5.07;100.00
53758;BME280;39674;59.860;30.672;2023-02-24T08:17:16;99527.06;;;-5.07;100.00
53758;BME280;39674;59.860;30.672;2023-02-24T08:19:49;99532.19;;;-5.07;100.00
53758;BME280;39674;59.860;30.672;2023-02-24T08:22:38;99525.34;;;-5.05;100.00
53758;BME280;39674;59.860;30.672;2023-02-24T08:25:10;99526.22;;;-5.12;100.00
53758;BME280;39674;59.860;30.672;2023-02-24T08:27:44;99521.94;;;-5.13;100.00
53758;BME280;39674;59.860;30.672;2023-02-24T08:30:22;99514.25;;;-5.16;100.00
53758;BME280;39674;59.860;30.672;2023-02-24T08:32:56;99514.25;;;-5.16;100.00
53758;BME280;39674;59.860;30.672;2023-02-24T08:35:30;99509.97;;;-5.17;100.00
53758;BME280;39674;59.860;30.672;2023-02-24T08:38:08;99512.50;;;-5.11;100.00
53758;BME280;39674;59.860;30.672;2023-02-24T08:40:42;99508.16;;;-5.09;100.00
53758;BME280;39674;59.860;30.672;2023-02-24T08:43:21;99505.59;;;-5.03;100.00
53758;BME280;39674;59.860;30.672;2023-02-24T08:46:01;99511.56;;;-5.02;100.00
53758;BME280;39674;59.860;30.672;2023-02-24T08:48:31;99497.78;;;-4.95;100.00
53758;BME280;39674;59.860;30.672;2023-02-24T08:51:05;99497.81;;;-5.00;100.00
53758;BME280;39674;59.860;30.672;2023-02-24T08:53:34;99497.81;;;-4.96;100.00
53758;BME280;39674;59.860;30.672;2023-02-24T08:56:06;99489.19;;;-4.95;100.00
53758;BME280;39674;59.860;30.672;2023-02-24T08:58:53;99495.13;;;-4.86;100.00
53758;BME280;39674;59.860;30.672;2023-02-24T09:01:27;99491.72;;;-4.88;100.00
53758;BME280;39674;59.860;30.672;2023-02-24T09:04:11;99482.16;;;-4.75;100.00
53758;BME280;39674;59.860;30.672;2023-02-24T09:06:51;99485.53;;;-4.70;100.00
53758;BME280;39674;59.860;30.672;2023-02-24T09:09:28;99484.72;;;-4.72;100.00
53758;BME280;39674;59.860;30.672;2023-02-24T09:12:04;99491.50;;;-4.63;100.00
53758;BME280;39674;59.860;30.672;2023-02-24T09:14:33;99488.78;;;-4.46;100.00
53758;BME280;39674;59.860;30.672;2023-02-24T09:17:13;99487.91;;;-4.45;100.00
53758;BME280;39674;59.860;30.672;2023-02-24T09:19:49;99487.88;;;-4.42;100.00
53758;BME280;39674;59.860;30.672;2023-02-24T09:22:40;99484.38;;;-4.35;100.00
53758;BME280;39674;59.860;30.672;2023-02-24T09:25:33;99485.22;;;-4.36;100.00
53758;BME280;39674;59.860;30.672;2023-02-24T09:28:13;99486.06;;;-4.33;100.00
53758;BME280;39674;59.860;30.672;2023-02-24T09:30:50;99478.38;;;-4.35;100.00
53758;BME280;39674;59.860;30.672;2023-02-24T09:33:35;99476.69;;;-4.41;100.00
53758;BME280;39674;59.860;30.672;2023-02-24T09:36:12;99477.53;;;-4.39;100.00
53758;BME280;39674;59.860;30.672;2023-02-24T09:38:51;99467.28;;;-4.43;100.00
53758;BME280;39674;59.860;30.672;2023-02-24T09:41:42;99480.13;;;-4.42;100.00
53758;BME280;39674;59.860;30.672;2023-02-24T09:44:48;99474.09;;;-4.39;100.00
53758;BME280;39674;59.860;30.672;2023-02-24T09:47:22;99473.28;;;-4.43;100.00
53758;BME280;39674;59.860;30.672;2023-02-24T09:50:10;99468.03;;;-4.37;100.00
53758;BME280;39674;59.860;30.672;2023-02-24T09:52:44;99473.25;;;-4.40;100.00
53758;BME280;39674;59.860;30.672;2023-02-24T09:55:21;99462.91;;;-4.35;100.00
53758;BME280;39674;59.860;30.672;2023-02-24T09:57:57;99464.53;;;-4.29;100.00
53758;BME280;39674;59.860;30.672;2023-02-24T10:00:51;99458.63;;;-4.38;100.00
53758;BME280;39674;59.860;30.672;2023-02-24T10:03:41;99459.44;;;-4.32;100.00
53758;BME280;39674;59.860;30.672;2023-02-24T10:06:16;99445.72;;;-4.36;100.00
53758;BME280;39674;59.860;30.672;2023-02-24T10:08:50;99450.75;;;-4.25;100.00
53758;BME280;39674;59.860;30.672;2023-02-24T10:11:25;99455.03;;;-4.23;100.00
53758;BME280;39674;59.860;30.672;2023-02-24T10:14:05;99454.13;;;-4.20;100.00
53758;BME280;39674;59.860;30.672;2023-02-24T10:16:38;99447.25;;;-4.18;100.00
53758;BME280;39674;59.860;30.672;2023-02-24T10:19:23;99450.69;;;-4.21;100.00
53758;BME280;39674;59.860;30.672;2023-02-24T10:21:59;99443.75;;;-4.14;100.00
53758;BME280;39674;59.860;30.672;2023-02-24T10:24:44;99437.66;;;-4.07;100.00
53758;BME280;39674;59.860;30.672;2023-02-24T10:27:22;99431.53;;;-3.99;100.00
53758;BME280;39674;59.860;30.672;2023-02-24T10:30:01;99431.47;;;-3.93;100.00
53758;BME280;39674;59.860;30.672;2023-02-24T10:32:42;99431.34;;;-3.85;100.00
53758;BME280;39674;59.860;30.672;2023-02-24T10:35:17;99432.34;;;-3.94;100.00
53758;BME280;39674;59.860;30.672;2023-02-24T10:37:56;99431.38;;;-3.87;100.00
53758;BME280;39674;59.860;30.672;2023-02-24T10:40:42;99437.31;;;-3.79;100.00
53758;BME280;39674;59.860;30.672;2023-02-24T10:43:16;99431.19;;;-3.73;100.00
53758;BME280;39674;59.860;30.672;2023-02-24T10:45:56;99427.63;;;-3.64;100.00
53758;BME280;39674;59.860;30.672;2023-02-24T10:48:33;99424.31;;;-3.73;100.00
53758;BME280;39674;59.860;30.672;2023-02-24T10:51:12;99418.25;;;-3.70;100.00
53758;BME280;39674;59.860;30.672;2023-02-24T10:53:48;99415.53;;;-3.59;100.00
53758;BME280;39674;59.860;30.672;2023-02-24T10:56:40;99412.13;;;-3.63;100.00
53758;BME280;39674;59.860;30.672;2023-02-24T10:59:12;99410.41;;;-3.62;100.00
53758;BME280;39674;59.860;30.672;2023-02-24T11:02:00;99415.63;;;-3.65;100.00
53758;BME280;39674;59.860;30.672;2023-02-24T11:04:34;99415.66;;;-3.68;100.00
53758;BME280;39674;59.860;30.672;2023-02-24T11:07:21;99415.53;;;-3.59;100.00
53758;BME280;39674;59.860;30.672;2023-02-24T11:10:10;99418.81;;;-3.51;100.00
53758;BME280;39674;59.860;30.672;2023-02-24T11:12:42;99414.38;;;-3.40;100.00
53758;BME280;39674;59.860;30.672;2023-02-24T11:15:31;99416.19;;;-3.46;100.00
53758;BME280;39674;59.860;30.672;2023-02-24T11:18:19;99417.22;;;-3.58;100.00
53758;BME280;39674;59.860;30.672;2023-02-24T11:20:51;99417.28;;;-3.61;100.00
53758;BME280;39674;59.860;30.672;2023-02-24T11:23:22;99419.84;;;-3.61;100.00
53758;BME280;39674;59.860;30.672;2023-02-24T11:25:55;99415.56;;;-3.62;100.00
53758;BME280;39674;59.860;30.672;2023-02-24T11:28:41;99416.50;;;-3.66;100.00
53758;BME280;39674;59.860;30.672;2023-02-24T11:31:18;99412.13;;;-3.64;100.00
53758;BME280;39674;59.860;30.672;2023-02-24T11:33:54;99413.91;;;-3.66;100.00
53758;BME280;39674;59.860;30.672;2023-02-24T11:36:28;99415.63;;;-3.65;100.00
53758;BME280;39674;59.860;30.672;2023-02-24T11:39:02;99411.31;;;-3.68;100.00
53758;BME280;39674;59.860;30.672;2023-02-24T11:41:34;99412.97;;;-3.62;100.00
53758;BME280;39674;59.860;30.672;2023-02-24T11:44:08;99408.66;;;-3.60;100.00
53758;BME280;39674;59.860;30.672;2023-02-24T11:46:39;99411.31;;;-3.66;100.00
53758;BME280;39674;59.860;30.672;2023-02-24T11:49:14;99404.47;;;-3.69;100.00
53758;BME280;39674;59.860;30.672;2023-02-24T11:51:43;99405.31;;;-3.68;100.00
53758;BME280;39674;59.860;30.672;2023-02-24T11:54:12;99405.22;;;-3.59;100.00
53758;BME280;39674;59.860;30.672;2023-02-24T11:56:42;99398.34;;;-3.60;100.00
53758;BME280;39674;59.860;30.672;2023-02-24T11:59:13;99391.31;;;-3.52;100.00
53758;BME280;39674;59.860;30.672;2023-02-24T12:01:47;99389.66;;;-3.56;100.00
53758;BME280;39674;59.860;30.672;2023-02-24T12:04:18;99387.91;;;-3.54;100.00
53758;BME280;39674;59.860;30.672;2023-02-24T12:06:50;99391.28;;;-3.49;100.00
53758;BME280;39674;59.860;30.672;2023-02-24T12:09:22;99391.25;;;-3.47;100.00
53758;BME280;39674;59.860;30.672;2023-02-24T12:11:54;99396.38;;;-3.46;100.00
53758;BME280;39674;59.860;30.672;2023-02-24T12:14:31;99388.63;;;-3.44;100.00
53758;BME280;39674;59.860;30.672;2023-02-24T12:17:03;99381.75;;;-3.45;100.00
53758;BME280;39674;59.860;30.672;2023-02-24T12:19:39;99380.81;;;-3.41;100.00
53758;BME280;39674;59.860;30.672;2023-02-24T12:22:13;99368.78;;;-3.41;100.00
53758;BME280;39674;59.860;30.672;2023-02-24T12:24:44;99369.59;;;-3.37;100.00
53758;BME280;39674;59.860;30.672;2023-02-24T12:27:16;99363.50;;;-3.34;100.00
53758;BME280;39674;59.860;30.672;2023-02-24T12:29:57;99365.16;;;-3.30;100.00
53758;BME280;39674;59.860;30.672;2023-02-24T12:32:38;99358.25;;;-3.28;100.00
53758;BME280;39674;59.860;30.672;2023-02-24T12:35:12;99361.56;;;-3.20;100.00
53758;BME280;39674;59.860;30.672;2023-02-24T12:37:50;99358.97;;;-3.20;100.00
53758;BME280;39674;59.860;30.672;2023-02-24T12:40:29;99364.00;;;-3.12;100.00
53758;BME280;39674;59.860;30.672;2023-02-24T12:43:07;99357.81;;;-3.03;100.00
53758;BME280;39674;59.860;30.672;2023-02-24T12:45:44;99353.50;;;-3.03;100.00
53758;BME280;39674;59.860;30.672;2023-02-24T12:48:20;99350.03;;;-3.00;100.00
53758;BME280;39674;59.860;30.672;2023-02-24T12:50:52;99349.00;;;-2.93;100.00
53758;BME280;39674;59.860;30.672;2023-02-24T12:53:26;99345.63;;;-2.95;100.00
53758;BME280;39674;59.860;30.672;2023-02-24T12:56:00;99349.94;;;-2.96;100.00
53758;BME280;39674;59.860;30.672;2023-02-24T12:58:36;99325.19;;;-3.09;100.00
53758;BME280;39674;59.860;30.672;2023-02-24T13:01:08;99348.22;;;-2.97;100.00
53758;BME280;39674;59.860;30.672;2023-02-24T13:03:53;99347.38;;;-2.97;100.00
53758;BME280;39674;59.860;30.672;2023-02-24T13:06:26;99350.78;;;-2.95;100.00
53758;BME280;39674;59.860;30.672;2023-02-24T13:08:57;99338.63;;;-2.90;100.00
53758;BME280;39674;59.860;30.672;2023-02-24T13:11:28;99340.38;;;-2.92;100.00
53758;BME280;39674;59.860;30.672;2023-02-24T13:14:02;99338.75;;;-2.96;100.00
53758;BME280;39674;59.860;30.672;2023-02-24T13:16:33;99342.16;;;-2.94;100.00
53758;BME280;39674;59.860;30.672;2023-02-24T13:19:16;99335.22;;;-2.92;100.00
53758;BME280;39674;59.860;30.672;2023-02-24T13:22:00;99338.56;;;-2.87;100.00
53758;BME280;39674;59.860;30.672;2023-02-24T13:24:30;99337.69;;;-2.86;100.00
53758;BME280;39674;59.860;30.672;2023-02-24T13:27:05;99329.94;;;-2.86;100.00
53758;BME280;39674;59.860;30.672;2023-02-24T13:29:41;99329.81;;;-2.80;100.00
53758;BME280;39674;59.860;30.672;2023-02-24T13:32:21;99330.66;;;-2.78;100.00
53758;BME280;39674;59.860;30.672;2023-02-24T13:34:52;99330.69;;;-2.79;100.00
53758;BME280;39674;59.860;30.672;2023-02-24T13:37:30;99322.97;;;-2.81;100.00
53758;BME280;39674;59.860;30.672;2023-02-24T13:39:59;99324.66;;;-2.80;100.00